sensor_id;sensor_type;location;lat;lon;timestamp;pressure;altitude;pressure_sealevel;temperature;humidity
18697;BME280;22617;43.690;27.956;2022-11-14T00:01:52;100124.44;;;4.81;76.44
18697;BME280;22617;43.690;27.956;2022-11-14T00:07:16;100112.53;;;4.62;76.21
18697;BME280;22617;43.690;27.956;2022-11-14T00:12:38;100121.06;;;4.60;76.49
18697;BME280;22617;43.690;27.956;2022-11-14T00:18:00;100124.69;;;4.65;77.54
18697;BME280;22617;43.690;27.956;2022-11-14T00:23:23;100124.69;;;4.65;77.30
18697;BME280;22617;43.690;27.956;2022-11-14T00:28:45;100115.44;;;4.70;78.99
18697;BME280;22617;43.690;27.956;2022-11-14T00:34:08;100110.88;;;4.87;78.97
18697;BME280;22617;43.690;27.956;2022-11-14T00:39:31;100100.78;;;4.94;78.60
18697;BME280;22617;43.690;27.956;2022-11-14T00:44:53;100108.38;;;5.13;79.58
18697;BME280;22617;43.690;27.956;2022-11-14T00:50:15;100102.84;;;5.26;79.41
18697;BME280;22617;43.690;27.956;2022-11-14T00:55:39;100096.13;;;5.32;80.69
18697;BME280;22617;43.690;27.956;2022-11-14T01:01:01;100095.13;;;5.53;81.63
18697;BME280;22617;43.690;27.956;2022-11-14T01:06:23;100087.72;;;5.64;81.55
18697;BME280;22617;43.690;27.956;2022-11-14T01:11:46;100094.16;;;5.75;82.15
18697;BME280;22617;43.690;27.956;2022-11-14T01:17:08;100085.00;;;5.86;82.74
18697;BME280;22617;43.690;27.956;2022-11-14T01:22:30;100081.09;;;5.97;83.29
18697;BME280;22617;43.690;27.956;2022-11-14T01:27:53;100077.03;;;6.05;83.50
18697;BME280;22617;43.690;27.956;2022-11-14T01:33:15;100079.19;;;6.20;84.51
18697;BME280;22617;43.690;27.956;2022-11-14T01:38:37;100073.66;;;6.36;85.06
18697;BME280;22617;43.690;27.956;2022-11-14T01:44:01;100073.94;;;6.45;85.45
18697;BME280;22617;43.690;27.956;2022-11-14T01:49:25;100066.94;;;6.43;85.80
18697;BME280;22617;43.690;27.956;2022-11-14T01:54:49;100067.81;;;6.42;86.32
18697;BME280;22617;43.690;27.956;2022-11-14T02:00:15;100061.25;;;6.54;87.25
18697;BME280;22617;43.690;27.956;2022-11-14T02:05:37;100056.28;;;6.62;87.51
18697;BME280;22617;43.690;27.956;2022-11-14T02:10:59;100063.41;;;6.69;87.60
18697;BME280;22617;43.690;27.956;2022-11-14T02:16:22;100061.81;;;6.74;87.31
18697;BME280;22617;43.690;27.956;2022-11-14T02:21:46;100045.47;;;6.77;87.14
18697;BME280;22617;43.690;27.956;2022-11-14T02:27:09;100052.22;;;6.70;86.93
18697;BME280;22617;43.690;27.956;2022-11-14T02:32:31;100042.31;;;6.57;86.97
18697;BME280;22617;43.690;27.956;2022-11-14T02:38:15;100040.94;;;6.68;87.41
18697;BME280;22617;43.690;27.956;2022-11-14T02:43:37;100043.44;;;6.65;86.89
18697;BME280;22617;43.690;27.956;2022-11-14T02:48:59;100043.75;;;6.46;86.51
18697;BME280;22617;43.690;27.956;2022-11-14T02:54:22;100039.97;;;6.35;85.88
18697;BME280;22617;43.690;27.956;2022-11-14T02:59:44;100044.25;;;6.34;86.02
18697;BME280;22617;43.690;27.956;2022-11-14T03:05:06;100046.81;;;6.33;85.77
18697;BME280;22617;43.690;27.956;2022-11-14T03:10:29;100047.59;;;6.30;85.89
18697;BME280;22617;43.690;27.956;2022-11-14T03:15:51;100052.16;;;6.39;86.00
18697;BME280;22617;43.690;27.956;2022-11-14T03:21:14;100049.69;;;6.43;85.93
18697;BME280;22617;43.690;27.956;2022-11-14T03:26:37;100048.00;;;6.44;85.45
18697;BME280;22617;43.690;27.956;2022-11-14T03:31:59;100046.28;;;6.44;85.65
18697;BME280;22617;43.690;27.956;2022-11-14T03:37:21;100047.50;;;6.57;85.91
18697;BME280;22617;43.690;27.956;2022-11-14T03:42:44;100047.00;;;6.69;86.12
18697;BME280;22617;43.690;27.956;2022-11-14T03:48:06;100044.47;;;6.72;85.99
18697;BME280;22617;43.690;27.956;2022-11-14T03:53:28;100047.88;;;6.69;85.96
18697;BME280;22617;43.690;27.956;2022-11-14T03:58:51;100051.34;;;6.70;86.11
18697;BME280;22617;43.690;27.956;2022-11-14T04:04:14;100055.59;;;6.68;85.96
18697;BME280;22617;43.690;27.956;2022-11-14T04:09:36;100053.13;;;6.72;86.13
18697;BME280;22617;43.690;27.956;2022-11-14T04:14:59;100060.91;;;6.72;86.03
18697;BME280;22617;43.690;27.956;2022-11-14T04:20:21;100063.41;;;6.69;86.02
18697;BME280;22617;43.690;27.956;2022-11-14T04:25:44;100061.75;;;6.71;86.07
18697;BME280;22617;43.690;27.956;2022-11-14T04:31:08;100076.50;;;6.74;86.29
18697;BME280;22617;43.690;27.956;2022-11-14T04:36:30;100070.44;;;6.73;86.67
18697;BME280;22617;43.690;27.956;2022-11-14T04:41:52;100072.25;;;6.77;86.84
18697;BME280;22617;43.690;27.956;2022-11-14T04:47:15;100075.78;;;6.79;87.07
18697;BME280;22617;43.690;27.956;2022-11-14T04:52:37;100074.72;;;6.73;86.95
18697;BME280;22617;43.690;27.956;2022-11-14T04:57:59;100077.19;;;6.68;87.15
18697;BME280;22617;43.690;27.956;2022-11-14T05:03:23;100083.06;;;6.63;87.32
18697;BME280;22617;43.690;27.956;2022-11-14T05:08:45;100087.22;;;6.56;87.23
18697;BME280;22617;43.690;27.956;2022-11-14T05:14:08;100087.47;;;6.65;87.75
18697;BME280;22617;43.690;27.956;2022-11-14T05:19:31;100076.22;;;6.65;87.60
18697;BME280;22617;43.690;27.956;2022-11-14T05:24:53;100081.59;;;6.71;87.83
18697;BME280;22617;43.690;27.956;2022-11-14T05:30:16;100087.56;;;6.68;87.65
18697;BME280;22617;43.690;27.956;2022-11-14T05:35:39;100088.38;;;6.67;86.96
18697;BME280;22617;43.690;27.956;2022-11-14T05:41:04;100098.75;;;6.67;87.27
18697;BME280;22617;43.690;27.956;2022-11-14T05:46:26;100095.44;;;6.71;87.48
18697;BME280;22617;43.690;27.956;2022-11-14T05:51:50;100099.94;;;6.78;87.66
18697;BME280;22617;43.690;27.956;2022-11-14T05:57:11;100110.38;;;6.81;87.64
18697;BME280;22617;43.690;27.956;2022-11-14T06:02:34;100110.69;;;6.92;87.73
18697;BME280;22617;43.690;27.956;2022-11-14T06:07:57;100108.97;;;6.92;88.23
18697;BME280;22617;43.690;27.956;2022-11-14T06:13:19;100110.28;;;7.08;88.66
18697;BME280;22617;43.690;27.956;2022-11-14T06:18:43;100102.81;;;7.19;88.01
18697;BME280;22617;43.690;27.956;2022-11-14T06:24:07;100100.59;;;7.32;87.85
18697;BME280;22617;43.690;27.956;2022-11-14T06:29:29;100105.00;;;7.36;87.78
18697;BME280;22617;43.690;27.956;2022-11-14T06:34:55;100094.16;;;7.51;87.74
18697;BME280;22617;43.690;27.956;2022-11-14T06:40:18;100099.53;;;7.57;87.51
18697;BME280;22617;43.690;27.956;2022-11-14T06:45:40;100105.00;;;7.36;87.02
18697;BME280;22617;43.690;27.956;2022-11-14T06:51:03;100095.59;;;7.40;87.69
18697;BME280;22617;43.690;27.956;2022-11-14T06:56:26;100091.56;;;7.51;87.72
18697;BME280;22617;43.690;27.956;2022-11-14T07:01:48;100096.03;;;7.57;87.49
18697;BME280;22617;43.690;27.956;2022-11-14T07:07:10;100091.09;;;7.66;87.62
18697;BME280;22617;43.690;27.956;2022-11-14T07:12:34;100093.03;;;7.74;87.79
18697;BME280;22617;43.690;27.956;2022-11-14T07:17:57;100088.94;;;7.84;87.87
18697;BME280;22617;43.690;27.956;2022-11-14T07:23:19;100093.66;;;8.00;88.10
18697;BME280;22617;43.690;27.956;2022-11-14T07:28:44;100085.31;;;8.13;87.90
18697;BME280;22617;43.690;27.956;2022-11-14T07:34:12;100089.88;;;8.25;87.96
18697;BME280;22617;43.690;27.956;2022-11-14T07:39:33;100085.94;;;8.39;88.71
18697;BME280;22617;43.690;27.956;2022-11-14T07:44:57;100085.81;;;8.33;87.72
18697;BME280;22617;43.690;27.956;2022-11-14T07:50:19;100088.16;;;8.25;87.76
18697;BME280;22617;43.690;27.956;2022-11-14T07:55:40;100087.63;;;8.37;88.36
18697;BME280;22617;43.690;27.956;2022-11-14T08:01:06;100093.38;;;8.25;87.68
18697;BME280;22617;43.690;27.956;2022-11-14T08:06:28;100083.44;;;8.44;88.62
18697;BME280;22617;43.690;27.956;2022-11-14T08:11:50;100081.50;;;8.35;88.58
18697;BME280;22617;43.690;27.956;2022-11-14T08:17:14;100090.22;;;8.37;88.80
18697;BME280;22617;43.690;27.956;2022-11-14T08:22:36;100091.88;;;8.35;88.47
18697;BME280;22617;43.690;27.956;2022-11-14T08:27:58;100084.53;;;8.53;89.02
18697;BME280;22617;43.690;27.956;2022-11-14T08:33:22;100087.56;;;8.74;89.02
18697;BME280;22617;43.690;27.956;2022-11-14T08:38:44;100077.75;;;8.61;88.43
18697;BME280;22617;43.690;27.956;2022-11-14T08:44:05;100084.91;;;8.71;87.98
18697;BME280;22617;43.690;27.956;2022-11-14T08:49:29;100081.47;;;8.74;88.73
18697;BME280;22617;43.690;27.956;2022-11-14T08:54:51;100081.44;;;8.71;87.98
18697;BME280;22617;43.690;27.956;2022-11-14T09:00:14;100074.59;;;8.76;87.63
18697;BME280;22617;43.690;27.956;2022-11-14T09:05:38;100069.44;;;8.78;87.71
18697;BME280;22617;43.690;27.956;2022-11-14T09:11:01;100062.13;;;8.60;87.57
18697;BME280;22617;43.690;27.956;2022-11-14T09:16:25;100061.88;;;8.90;88.16
18697;BME280;22617;43.690;27.956;2022-11-14T09:21:49;100052.34;;;8.90;87.59
18697;BME280;22617;43.690;27.956;2022-11-14T09:27:11;100051.44;;;8.87;86.79
18697;BME280;22617;43.690;27.956;2022-11-14T09:32:33;100046.41;;;8.96;86.20
18697;BME280;22617;43.690;27.956;2022-11-14T09:38:00;100044.69;;;8.98;86.20
18697;BME280;22617;43.690;27.956;2022-11-14T09:43:34;100027.69;;;9.16;86.19
18697;BME280;22617;43.690;27.956;2022-11-14T09:49:02;100031.84;;;9.07;85.45
18697;BME280;22617;43.690;27.956;2022-11-14T09:54:39;100030.84;;;8.99;85.18
18697;BME280;22617;43.690;27.956;2022-11-14T10:00:12;100019.53;;;8.95;84.42
18697;BME280;22617;43.690;27.956;2022-11-14T10:05:52;100009.91;;;8.93;83.81
18697;BME280;22617;43.690;27.956;2022-11-14T10:11:22;100010.72;;;8.87;83.39
18697;BME280;22617;43.690;27.956;2022-11-14T10:16:52;100004.63;;;8.87;82.87
18697;BME280;22617;43.690;27.956;2022-11-14T10:22:31;99996.75;;;8.82;83.90
18697;BME280;22617;43.690;27.956;2022-11-14T10:28:12;99988.25;;;8.92;82.89
18697;BME280;22617;43.690;27.956;2022-11-14T10:33:45;99984.00;;;8.96;82.78
18697;BME280;22617;43.690;27.956;2022-11-14T10:39:14;99973.81;;;9.08;82.58
18697;BME280;22617;43.690;27.956;2022-11-14T10:44:47;99968.16;;;8.82;82.48
18697;BME280;22617;43.690;27.956;2022-11-14T10:50:17;99962.22;;;8.89;82.76
18697;BME280;22617;43.690;27.956;2022-11-14T10:55:40;99969.75;;;8.75;82.97
18697;BME280;22617;43.690;27.956;2022-11-14T11:01:35;99966.41;;;8.81;83.32
18697;BME280;22617;43.690;27.956;2022-11-14T11:07:18;99957.84;;;8.87;82.28
18697;BME280;22617;43.690;27.956;2022-11-14T11:12:54;99949.13;;;8.85;82.41
18697;BME280;22617;43.690;27.956;2022-11-14T11:18:26;99956.88;;;8.83;82.33
18697;BME280;22617;43.690;27.956;2022-11-14T11:23:51;99968.13;;;8.81;82.96
18697;BME280;22617;43.690;27.956;2022-11-14T11:29:15;99965.41;;;8.74;83.23
18697;BME280;22617;43.690;27.956;2022-11-14T11:34:39;99957.56;;;8.71;83.84
18697;BME280;22617;43.690;27.956;2022-11-14T11:40:04;99953.13;;;8.66;82.84
18697;BME280;22617;43.690;27.956;2022-11-14T11:45:28;99949.91;;;8.81;83.59
18697;BME280;22617;43.690;27.956;2022-11-14T11:50:52;99951.50;;;8.72;82.67
18697;BME280;22617;43.690;27.956;2022-11-14T11:56:18;99950.25;;;8.52;83.38
18697;BME280;22617;43.690;27.956;2022-11-14T12:01:42;99949.13;;;8.40;84.03
18697;BME280;22617;43.690;27.956;2022-11-14T12:07:09;99954.19;;;8.32;84.38
18697;BME280;22617;43.690;27.956;2022-11-14T12:12:47;99951.81;;;8.44;85.29
18697;BME280;22617;43.690;27.956;2022-11-14T12:18:33;99948.44;;;8.48;84.30
18697;BME280;22617;43.690;27.956;2022-11-14T12:24:21;99948.94;;;8.30;84.16
18697;BME280;22617;43.690;27.956;2022-11-14T12:30:03;99952.06;;;8.16;83.67
18697;BME280;22617;43.690;27.956;2022-11-14T12:35:31;99946.75;;;8.10;84.21
18697;BME280;22617;43.690;27.956;2022-11-14T12:40:57;99952.84;;;8.12;84.11
18697;BME280;22617;43.690;27.956;2022-11-14T12:46:20;99953.94;;;8.23;83.90
18697;BME280;22617;43.690;27.956;2022-11-14T12:51:49;99952.84;;;8.12;84.30
18697;BME280;22617;43.690;27.956;2022-11-14T12:57:20;99951.72;;;7.99;84.58
18697;BME280;22617;43.690;27.956;2022-11-14T13:03:25;99935.94;;;8.30;85.10
18697;BME280;22617;43.690;27.956;2022-11-14T13:09:17;99941.56;;;8.10;84.47
18697;BME280;22617;43.690;27.956;2022-11-14T13:14:50;99943.09;;;8.00;85.05
18697;BME280;22617;43.690;27.956;2022-11-14T13:20:31;99936.84;;;7.92;84.79
18697;BME280;22617;43.690;27.956;2022-11-14T13:26:48;99933.91;;;7.75;85.67
18697;BME280;22617;43.690;27.956;2022-11-14T13:44:39;99936.94;;;7.97;85.78
18697;BME280;22617;43.690;27.956;2022-11-14T13:50:10;99934.78;;;7.77;85.06
18697;BME280;22617;43.690;27.956;2022-11-14T13:55:38;99925.44;;;7.84;84.97
18697;BME280;22617;43.690;27.956;2022-11-14T14:01:17;99923.66;;;7.81;85.27
18697;BME280;22617;43.690;27.956;2022-11-14T14:06:51;99927.00;;;7.76;84.98
18697;BME280;22617;43.690;27.956;2022-11-14T14:12:29;99926.38;;;7.87;84.87
18697;BME280;22617;43.690;27.956;2022-11-14T14:18:02;99922.78;;;7.82;84.30
18697;BME280;22617;43.690;27.956;2022-11-14T14:23:36;99922.34;;;7.61;84.28
18697;BME280;22617;43.690;27.956;2022-11-14T14:29:09;99914.34;;;7.52;84.83
18697;BME280;22617;43.690;27.956;2022-11-14T14:34:35;99911.59;;;7.46;85.14
18697;BME280;22617;43.690;27.956;2022-11-14T14:40:01;99913.44;;;7.50;85.13
18697;BME280;22617;43.690;27.956;2022-11-14T14:45:25;99908.28;;;7.53;85.28
18697;BME280;22617;43.690;27.956;2022-11-14T14:50:49;99898.88;;;7.57;85.14
18697;BME280;22617;43.690;27.956;2022-11-14T14:56:19;99896.19;;;7.54;85.65
18697;BME280;22617;43.690;27.956;2022-11-14T15:01:42;99893.50;;;7.49;85.81
18697;BME280;22617;43.690;27.956;2022-11-14T15:07:04;99891.84;;;7.51;85.78
18697;BME280;22617;43.690;27.956;2022-11-14T15:12:29;99891.69;;;7.45;86.41
18697;BME280;22617;43.690;27.956;2022-11-14T15:17:52;99893.44;;;7.46;86.28
18697;BME280;22617;43.690;27.956;2022-11-14T15:23:19;99890.81;;;7.43;86.50
18697;BME280;22617;43.690;27.956;2022-11-14T15:28:43;99889.91;;;7.42;86.49
18697;BME280;22617;43.690;27.956;2022-11-14T15:34:18;99888.22;;;7.44;86.45
18697;BME280;22617;43.690;27.956;2022-11-14T15:39:44;99900.19;;;7.39;86.60
18697;BME280;22617;43.690;27.956;2022-11-14T15:45:21;99900.31;;;7.44;86.55
18697;BME280;22617;43.690;27.956;2022-11-14T15:50:48;99909.69;;;7.37;86.78
18697;BME280;22617;43.690;27.956;2022-11-14T15:56:11;99900.41;;;7.49;86.83
18697;BME280;22617;43.690;27.956;2022-11-14T16:01:36;99907.19;;;7.42;86.71
18697;BME280;22617;43.690;27.956;2022-11-14T16:06:58;99913.00;;;7.32;87.10
18697;BME280;22617;43.690;27.956;2022-11-14T16:12:21;99912.16;;;7.33;87.07
18697;BME280;22617;43.690;27.956;2022-11-14T16:17:45;99906.56;;;7.52;86.67
18697;BME280;22617;43.690;27.956;2022-11-14T16:23:10;99903.06;;;7.50;86.52
18697;BME280;22617;43.690;27.956;2022-11-14T16:28:33;99901.28;;;7.49;86.43
18697;BME280;22617;43.690;27.956;2022-11-14T16:33:56;99905.53;;;7.45;86.56
18697;BME280;22617;43.690;27.956;2022-11-14T16:39:18;99906.28;;;7.40;86.57
18697;BME280;22617;43.690;27.956;2022-11-14T16:44:40;99912.84;;;7.63;86.97
18697;BME280;22617;43.690;27.956;2022-11-14T16:50:11;99910.41;;;7.69;86.46
18697;BME280;22617;43.690;27.956;2022-11-14T16:55:33;99905.06;;;7.63;85.69
18697;BME280;22617;43.690;27.956;2022-11-14T17:00:55;99911.13;;;7.62;85.85
18697;BME280;22617;43.690;27.956;2022-11-14T17:06:19;99905.06;;;7.62;85.77
18697;BME280;22617;43.690;27.956;2022-11-14T17:11:41;99919.69;;;7.60;85.43
18697;BME280;22617;43.690;27.956;2022-11-14T17:17:05;99911.06;;;7.61;85.17
18697;BME280;22617;43.690;27.956;2022-11-14T17:22:28;99907.66;;;7.63;85.60
18697;BME280;22617;43.690;27.956;2022-11-14T17:27:50;99913.63;;;7.58;85.43
18697;BME280;22617;43.690;27.956;2022-11-14T17:33:12;99912.53;;;7.50;85.83
18697;BME280;22617;43.690;27.956;2022-11-14T17:38:37;99896.03;;;7.46;85.89
18697;BME280;22617;43.690;27.956;2022-11-14T17:43:59;99899.69;;;7.54;86.23
18697;BME280;22617;43.690;27.956;2022-11-14T17:49:23;99887.13;;;7.33;86.13
18697;BME280;22617;43.690;27.956;2022-11-14T17:54:46;99880.84;;;7.25;87.18
18697;BME280;22617;43.690;27.956;2022-11-14T18:00:09;99886.78;;;7.20;87.74
18697;BME280;22617;43.690;27.956;2022-11-14T18:05:31;99876.28;;;7.14;88.27
18697;BME280;22617;43.690;27.956;2022-11-14T18:10:58;99863.38;;;7.17;88.34
18697;BME280;22617;43.690;27.956;2022-11-14T18:16:20;99869.50;;;7.19;88.53
18697;BME280;22617;43.690;27.956;2022-11-14T18:21:54;99867.94;;;7.27;88.03
18697;BME280;22617;43.690;27.956;2022-11-14T18:27:17;99870.44;;;7.22;88.24
18697;BME280;22617;43.690;27.956;2022-11-14T18:32:40;99859.19;;;7.22;88.63
18697;BME280;22617;43.690;27.956;2022-11-14T18:38:01;99866.19;;;7.26;88.43
18697;BME280;22617;43.690;27.956;2022-11-14T18:43:25;99866.13;;;7.23;88.21
18697;BME280;22617;43.690;27.956;2022-11-14T18:48:52;99864.38;;;7.22;88.26
18697;BME280;22617;43.690;27.956;2022-11-14T18:54:15;99865.19;;;7.21;88.48
18697;BME280;22617;43.690;27.956;2022-11-14T18:59:39;99872.41;;;7.34;88.53
18697;BME280;22617;43.690;27.956;2022-11-14T19:05:01;99869.69;;;7.28;88.18
18697;BME280;22617;43.690;27.956;2022-11-14T19:10:25;99868.97;;;7.33;88.42
18697;BME280;22617;43.690;27.956;2022-11-14T19:15:49;99861.84;;;7.25;88.50
18697;BME280;22617;43.690;27.956;2022-11-14T19:21:10;99862.47;;;7.15;88.59
18697;BME280;22617;43.690;27.956;2022-11-14T19:26:32;99860.06;;;7.22;88.84
18697;BME280;22617;43.690;27.956;2022-11-14T19:31:56;99865.19;;;7.21;88.99
18697;BME280;22617;43.690;27.956;2022-11-14T19:37:18;99851.34;;;7.19;89.10
18697;BME280;22617;43.690;27.956;2022-11-14T19:42:40;99847.09;;;7.22;89.32
18697;BME280;22617;43.690;27.956;2022-11-14T19:48:04;99849.69;;;7.22;89.58
18697;BME280;22617;43.690;27.956;2022-11-14T19:53:26;99845.44;;;7.26;89.46
18697;BME280;22617;43.690;27.956;2022-11-14T19:58:50;99847.16;;;7.24;89.25
18697;BME280;22617;43.690;27.956;2022-11-14T20:04:14;99842.00;;;7.27;89.51
18697;BME280;22617;43.690;27.956;2022-11-14T20:09:36;99836.72;;;7.22;89.06
18697;BME280;22617;43.690;27.956;2022-11-14T20:14:58;99832.53;;;7.27;89.03
18697;BME280;22617;43.690;27.956;2022-11-14T20:20:21;99837.63;;;7.24;89.02
18697;BME280;22617;43.690;27.956;2022-11-14T20:25:49;99836.88;;;7.30;89.29
18697;BME280;22617;43.690;27.956;2022-11-14T20:31:14;99841.25;;;7.31;89.22
18697;BME280;22617;43.690;27.956;2022-11-14T20:36:38;99829.88;;;7.26;89.02
18697;BME280;22617;43.690;27.956;2022-11-14T20:42:21;99826.25;;;7.18;89.35
18697;BME280;22617;43.690;27.956;2022-11-14T20:47:42;99827.09;;;7.17;89.09
18697;BME280;22617;43.690;27.956;2022-11-14T20:53:06;99822.19;;;7.29;89.44
18697;BME280;22617;43.690;27.956;2022-11-14T20:58:28;99808.38;;;7.30;89.32
18697;BME280;22617;43.690;27.956;2022-11-14T21:03:50;99801.41;;;7.27;89.26
18697;BME280;22617;43.690;27.956;2022-11-14T21:09:13;99815.16;;;7.23;89.20
18697;BME280;22617;43.690;27.956;2022-11-14T21:14:35;99805.50;;;7.18;89.40
18697;BME280;22617;43.690;27.956;2022-11-14T21:19:57;99805.72;;;7.27;89.27
18697;BME280;22617;43.690;27.956;2022-11-14T21:25:20;99791.72;;;7.19;88.92
18697;BME280;22617;43.690;27.956;2022-11-14T21:30:42;99791.78;;;7.22;89.33
18697;BME280;22617;43.690;27.956;2022-11-14T21:36:04;99778.66;;;7.16;89.28
18697;BME280;22617;43.690;27.956;2022-11-14T21:41:47;99788.16;;;7.14;89.13
18697;BME280;22617;43.690;27.956;2022-11-14T21:47:09;99782.88;;;7.11;89.34
18697;BME280;22617;43.690;27.956;2022-11-14T21:52:31;99773.53;;;7.17;89.56
18697;BME280;22617;43.690;27.956;2022-11-14T21:57:54;99776.91;;;7.13;89.26
18697;BME280;22617;43.690;27.956;2022-11-14T22:03:17;99774.25;;;7.12;89.13
18697;BME280;22617;43.690;27.956;2022-11-14T22:08:56;99775.97;;;7.10;89.29
18697;BME280;22617;43.690;27.956;2022-11-14T22:14:19;99764.72;;;7.11;89.17
18697;BME280;22617;43.690;27.956;2022-11-14T22:19:41;99767.53;;;7.20;89.27
18697;BME280;22617;43.690;27.956;2022-11-14T22:25:05;99770.09;;;7.18;88.99
18697;BME280;22617;43.690;27.956;2022-11-14T22:30:28;99765.50;;;7.07;89.18
18697;BME280;22617;43.690;27.956;2022-11-14T22:35:50;99757.09;;;7.17;89.49
18697;BME280;22617;43.690;27.956;2022-11-14T22:41:12;99763.94;;;7.15;89.23
18697;BME280;22617;43.690;27.956;2022-11-14T22:46:36;99754.50;;;7.17;89.43
18697;BME280;22617;43.690;27.956;2022-11-14T22:51:58;99750.78;;;7.06;89.43
18697;BME280;22617;43.690;27.956;2022-11-14T22:57:20;99754.94;;;6.97;89.49
18697;BME280;22617;43.690;27.956;2022-11-14T23:02:43;99748.97;;;7.00;89.80
18697;BME280;22617;43.690;27.956;2022-11-14T23:08:04;99748.00;;;6.96;89.85
18697;BME280;22617;43.690;27.956;2022-11-14T23:13:26;99742.75;;;6.93;90.21
18697;BME280;22617;43.690;27.956;2022-11-14T23:18:52;99730.88;;;7.03;90.39
18697;BME280;22617;43.690;27.956;2022-11-14T23:24:14;99728.25;;;7.00;90.47
18697;BME280;22617;43.690;27.956;2022-11-14T23:29:36;99728.44;;;7.11;90.59
18697;BME280;22617;43.690;27.956;2022-11-14T23:35:00;99725.84;;;7.11;90.30
18697;BME280;22617;43.690;27.956;2022-11-14T23:40:22;99717.25;;;7.12;89.84
18697;BME280;22617;43.690;27.956;2022-11-14T23:45:44;99709.38;;;7.07;89.53
18697;BME280;22617;43.690;27.956;2022-11-14T23:51:09;99706.50;;;6.93;89.67
18697;BME280;22617;43.690;27.956;2022-11-14T23:56:33;99702.97;;;6.91;90.22
